Airfield :
LOGIN :

Register | Disclaimer

   EN    FR    IT 

 










Legend :    VFR   Marginal VFR   IFR   Intensive IFR   Very Intensive IFR
Visi :
Ceiling :
>= 8 km
>= 3000ft
5 to 8 km
1000 to 3000 ft
1500m to 5 km
500 to 1000 ft
800 to 1500m
200 to 500 ft
< 800m
< 200 ft
Symbols :   Thunderstorms  Fog  Heavy snow  Heavy precipitations  Wind > 20 kt
SIGMETs :     Misc.  Thunderstorms  Icing  Turbulence  Mountain Waves  Volcanic Ashes






- Airport Elevation : 117 ft
- IATA code : NWI


EGSH - Norwich

CURRENT METAR :
  • 021650Z 03004KT 360V100 2500 BR BKN004 05/04 Q1030

EXPIRED METARs :
  • 021620Z VRB03KT 4000 BR BKN005 06/04 Q1030 TEMPO 5000
  • 021550Z 02005KT 340V050 4500 BR BKN005 06/04 Q1030 TEMPO 5000
  • 021520Z 07004KT 030V120 5000 BR BKN006 06/04 Q1030 TEMPO SCT006
  • 021450Z VRB03KT 5000 BR BKN006 06/04 Q1030 TEMPO SCT006
  • 021420Z VRB03KT 5000 BR BKN006 06/04 Q1030 TEMPO SCT006

TAF AMD TAF EGSH
Valid from the 02 at 16:00 until the 03 at 00:00 UTC


021603Z 0216/0224 07005KT 6000 BKN006
TEMPO 0216/0224 2000 BR BKN003
PROB30
TEMPO 0221/0224 0300 FG BKN001
ATIS : +44 1603 420 640



MET'MAP, your aeronautical weather chart ! - Copyright ORBIFLY December 2007 - Disclaimer

ORBIFLY MET'MAP TEAM :

Programming & Development : Alexandra Zaïnal
Concept & original design : Baudouin d'Aumeries
Assistance for programming : Marc-Olivier Méhu
Technical & hardware support : Manuel Goepfert

Contact : metmap@orbifly.com




SOURCES & CREDITS :

   NOAA